Time;durP1;ratioP1;P1;durP2;ratioP2;P2;SDS_P1;SDS_P2;PMS_P1;PMS_P2;Temp;Humidity;BMP_temperature;BMP_pressure;BME280_temperature;BME280_humidity;BME280_pressure;Samples;Min_cycle;Max_cycle;Signal;HPM_P1;HPM_P2
2021/11/09 00:01:48;;;;;;;;;0.75;0.75;;;;;;;;4961412;28;112325;-73
2021/11/09 00:04:13;;;;;;;;;0.00;0.00;;;;;;;;4960523;28;113475;-73
2021/11/09 00:06:42;;;;;;;;;0.00;0.00;;;;;;;;4962187;28;112413;-74
2021/11/09 00:09:10;;;;;;;;;2.00;0.00;;;;;;;;4964929;28;112459;-73
2021/11/09 00:11:36;;;;;;;;;0.00;0.00;;;;;;;;4962067;28;112437;-73
2021/11/09 00:14:01;;;;;;;;;0.00;0.00;;;;;;;;4960614;28;112431;-72
2021/11/09 00:16:27;;;;;;;;;0.00;0.00;;;;;;;;4961371;28;111907;-73
2021/11/09 00:18:52;;;;;;;;;0.00;0.00;;;;;;;;4962199;28;112961;-72
2021/11/09 00:21:18;;;;;;;;;0.00;0.00;;;;;;;;4961612;28;112669;-73
2021/11/09 00:23:46;;;;;;;;;0.00;0.00;;;;;;;;4962154;28;111662;-72
2021/11/09 00:26:12;;;;;;;;;0.50;0.25;;;;;;;;4959527;28;113262;-72
2021/11/09 00:28:37;;;;;;;;;0.50;0.50;;;;;;;;4961249;28;112472;-72
2021/11/09 00:31:02;;;;;;;;;0.00;0.00;;;;;;;;4965274;28;112029;-72
2021/11/09 00:33:29;;;;;;;;;0.00;0.00;;;;;;;;4961310;28;112336;-72
2021/11/09 00:35:55;;;;;;;;;0.00;0.00;;;;;;;;4961477;28;111834;-72
2021/11/09 00:38:20;;;;;;;;;0.00;0.00;;;;;;;;4961342;28;112252;-72
2021/11/09 00:40:46;;;;;;;;;1.00;1.00;;;;;;;;4960231;28;113641;-72
2021/11/09 00:43:12;;;;;;;;;0.25;0.00;;;;;;;;4959389;28;112020;-72
2021/11/09 00:45:38;;;;;;;;;1.00;0.75;;;;;;;;4961806;28;112607;-73
2021/11/09 00:48:03;;;;;;;;;3.00;2.00;;;;;;;;4960962;28;113671;-72
2021/11/09 00:50:30;;;;;;;;;1.00;0.00;;;;;;;;4961667;28;112791;-73
2021/11/09 00:52:56;;;;;;;;;0.00;0.00;;;;;;;;4963688;28;112316;-72
2021/11/09 00:55:22;;;;;;;;;0.00;0.00;;;;;;;;4960319;28;111843;-72
2021/11/09 00:57:48;;;;;;;;;0.00;0.00;;;;;;;;4961411;28;111915;-72
2021/11/09 01:00:16;;;;;;;;;0.00;0.00;;;;;;;;4960356;28;112534;-73
2021/11/09 01:02:42;;;;;;;;;1.00;0.75;;;;;;;;4961981;28;111700;-72
2021/11/09 01:05:08;;;;;;;;;2.00;0.75;;;;;;;;4961238;28;113070;-72
2021/11/09 01:07:33;;;;;;;;;0.00;0.00;;;;;;;;4960112;28;112686;-72
2021/11/09 01:09:59;;;;;;;;;1.00;0.00;;;;;;;;4961448;28;112013;-71
2021/11/09 01:12:24;;;;;;;;;0.00;0.00;;;;;;;;4961136;28;113169;-72
2021/11/09 01:14:49;;;;;;;;;1.00;1.00;;;;;;;;4963720;28;112099;-73
2021/11/09 01:17:16;;;;;;;;;1.00;1.00;;;;;;;;4960620;28;112710;-72
2021/11/09 01:19:42;;;;;;;;;2.00;0.00;;;;;;;;4960253;28;112606;-73
2021/11/09 01:22:07;;;;;;;;;1.00;1.00;;;;;;;;4958218;28;112305;-73
2021/11/09 01:24:32;;;;;;;;;1.50;0.50;;;;;;;;4961223;28;112256;-73
2021/11/09 01:26:58;;;;;;;;;0.00;0.00;;;;;;;;4960046;28;112866;-73
2021/11/09 01:29:23;;;;;;;;;1.75;1.75;;;;;;;;4961211;28;111992;-73
2021/11/09 01:31:50;;;;;;;;;4.50;2.00;;;;;;;;4961112;28;112263;-73
2021/11/09 01:34:15;;;;;;;;;1.00;1.00;;;;;;;;4963307;28;113113;-74
2021/11/09 01:36:41;;;;;;;;;1.00;1.00;;;;;;;;4961523;28;112241;-72
2021/11/09 01:39:07;;;;;;;;;2.00;1.00;;;;;;;;4960134;28;112690;-72
2021/11/09 01:41:33;;;;;;;;;2.00;2.00;;;;;;;;4961146;28;112001;-72
2021/11/09 01:43:58;;;;;;;;;1.50;1.50;;;;;;;;4960688;28;112027;-73
2021/11/09 01:46:24;;;;;;;;;1.00;1.00;;;;;;;;4959726;28;112476;-72
2021/11/09 01:48:49;;;;;;;;;1.00;1.00;;;;;;;;4960464;28;111715;-72
2021/11/09 01:51:19;;;;;;;;;1.00;1.00;;;;;;;;4960546;28;111969;-72
2021/11/09 01:53:45;;;;;;;;;1.50;1.50;;;;;;;;4959127;28;113729;-72
2021/11/09 01:56:13;;;;;;;;;1.00;1.00;;;;;;;;4964216;28;112246;-73
2021/11/09 01:58:38;;;;;;;;;0.50;0.50;;;;;;;;4959549;28;112764;-73
2021/11/09 02:01:06;;;;;;;;;2.00;2.00;;;;;;;;4960543;28;112201;-71
2021/11/09 02:03:32;;;;;;;;;0.75;0.50;;;;;;;;4960935;28;111920;-73
2021/11/09 02:05:58;;;;;;;;;2.00;2.00;;;;;;;;4959995;28;112464;-73
2021/11/09 02:08:27;;;;;;;;;2.00;2.00;;;;;;;;4960160;28;111960;-74
2021/11/09 02:10:53;;;;;;;;;2.00;2.00;;;;;;;;4960497;28;113544;-72
2021/11/09 02:13:19;;;;;;;;;2.75;1.75;;;;;;;;4959490;28;112456;-73
2021/11/09 02:15:45;;;;;;;;;1.25;1.00;;;;;;;;4958482;28;111882;-72
2021/11/09 02:18:11;;;;;;;;;1.00;1.00;;;;;;;;4963070;28;112552;-72
2021/11/09 02:20:37;;;;;;;;;2.00;2.00;;;;;;;;4960595;28;112166;-72
2021/11/09 02:23:03;;;;;;;;;5.25;2.50;;;;;;;;4960672;28;112538;-72
2021/11/09 02:25:30;;;;;;;;;1.00;1.00;;;;;;;;4958930;28;112836;-72
2021/11/09 02:27:56;;;;;;;;;2.00;2.00;;;;;;;;4960855;28;112191;-73
2021/11/09 02:30:23;;;;;;;;;1.50;1.50;;;;;;;;4963630;28;111808;-73
2021/11/09 02:32:49;;;;;;;;;2.00;1.00;;;;;;;;4962125;28;112424;-72
2021/11/09 02:35:14;;;;;;;;;1.00;1.00;;;;;;;;4963498;28;111736;-73
2021/11/09 02:37:40;;;;;;;;;4.25;1.00;;;;;;;;4961972;28;113497;-73
2021/11/09 02:40:06;;;;;;;;;1.00;1.00;;;;;;;;4966706;28;114030;-73
2021/11/09 02:42:36;;;;;;;;;4.50;2.00;;;;;;;;4963971;28;111917;-73
2021/11/09 02:45:08;;;;;;;;;3.75;2.00;;;;;;;;4962964;28;112917;-74
2021/11/09 02:47:48;;;;;;;;;2.00;2.00;;;;;;;;4963788;28;111859;-72
2021/11/09 02:50:14;;;;;;;;;1.00;1.00;;;;;;;;4963472;28;113213;-74
2021/11/09 02:52:48;;;;;;;;;0.75;0.00;;;;;;;;4961877;28;114288;-73
2021/11/09 02:55:13;;;;;;;;;1.00;0.25;;;;;;;;4962853;28;112040;-72
2021/11/09 02:57:56;;;;;;;;;1.25;1.00;;;;;;;;4962436;28;112916;-73
2021/11/09 03:00:28;;;;;;;;;1.00;1.00;;;;;;;;4962054;28;114119;-72
2021/11/09 03:03:20;;;;;;;;;1.00;1.00;;;;;;;;4966408;28;112204;-72
2021/11/09 03:05:48;;;;;;;;;0.00;0.00;;;;;;;;4960714;28;112846;-72
2021/11/09 03:08:25;;;;;;;;;2.00;2.00;;;;;;;;4962607;28;112017;-72
2021/11/09 03:10:52;;;;;;;;;2.00;2.00;;;;;;;;4963174;28;113447;-72
2021/11/09 03:13:17;;;;;;;;;1.00;1.00;;;;;;;;4961172;28;112699;-73
2021/11/09 03:15:42;;;;;;;;;2.75;2.25;;;;;;;;4963531;28;112501;-73
2021/11/09 03:18:13;;;;;;;;;3.00;2.00;;;;;;;;4962279;28;113086;-71
2021/11/09 21:46:15;;;;;;;;;3.50;3.50;;;;;;;;5099706;27;112450;-83
2021/11/09 21:48:41;;;;;;;;;2.50;1.50;;;;;;;;5078483;27;112963;-84
2021/11/09 21:51:07;;;;;;;;;3.00;2.00;;;;;;;;5079277;27;111826;-86
2021/11/09 21:53:32;;;;;;;;;1.00;1.00;;;;;;;;5077881;27;113008;-85
2021/11/09 21:55:58;;;;;;;;;1.75;0.75;;;;;;;;5060019;27;113839;-84
2021/11/09 21:58:24;;;;;;;;;3.25;3.25;;;;;;;;5079544;27;111711;-86
2021/11/09 22:00:50;;;;;;;;;2.00;2.00;;;;;;;;5060917;27;116224;-86
2021/11/09 22:03:18;;;;;;;;;1.25;1.25;;;;;;;;5079062;27;113281;-86
2021/11/09 22:05:43;;;;;;;;;2.00;2.00;;;;;;;;5083992;27;111893;-84
2021/11/09 22:08:09;;;;;;;;;1.25;1.25;;;;;;;;5059977;27;116329;-86
2021/11/09 22:10:34;;;;;;;;;2.50;1.50;;;;;;;;5077296;27;111971;-86
2021/11/09 22:13:00;;;;;;;;;2.00;2.00;;;;;;;;5078956;27;112899;-80
2021/11/09 22:15:25;;;;;;;;;4.00;2.25;;;;;;;;5044184;27;113646;-83
2021/11/09 22:17:51;;;;;;;;;2.00;2.00;;;;;;;;5039939;27;112066;-80
2021/11/09 22:20:17;;;;;;;;;1.75;1.75;;;;;;;;5065850;27;113081;-79
2021/11/09 22:22:42;;;;;;;;;3.00;3.00;;;;;;;;5067083;27;113099;-80
2021/11/09 22:25:08;;;;;;;;;1.00;1.00;;;;;;;;5067065;27;111788;-79
2021/11/09 22:27:34;;;;;;;;;3.75;2.50;;;;;;;;5066323;27;112318;-78
2021/11/09 22:29:59;;;;;;;;;2.00;2.00;;;;;;;;5057819;27;112010;-79
2021/11/09 22:32:25;;;;;;;;;3.00;3.00;;;;;;;;5057953;27;112018;-79
2021/11/09 22:34:50;;;;;;;;;1.00;1.00;;;;;;;;5056230;27;113787;-79
2021/11/09 22:37:15;;;;;;;;;2.00;2.00;;;;;;;;5057315;27;111769;-79
2021/11/09 22:39:40;;;;;;;;;3.00;3.00;;;;;;;;5057661;27;111856;-79
2021/11/09 22:42:06;;;;;;;;;1.25;1.25;;;;;;;;5056420;27;112517;-79
2021/11/09 22:44:31;;;;;;;;;2.00;2.00;;;;;;;;5052265;27;112237;-79
2021/11/09 22:46:57;;;;;;;;;4.00;2.00;;;;;;;;5058406;27;112227;-80
2021/11/09 22:49:23;;;;;;;;;1.75;1.75;;;;;;;;5060610;27;112275;-80
2021/11/09 22:51:48;;;;;;;;;2.00;2.00;;;;;;;;5057263;27;113332;-78
2021/11/09 22:54:13;;;;;;;;;1.00;1.00;;;;;;;;5056600;27;112299;-79
2021/11/09 22:56:39;;;;;;;;;2.50;2.00;;;;;;;;5049049;27;111765;-79
2021/11/09 22:59:04;;;;;;;;;2.00;2.00;;;;;;;;5044105;27;112048;-79
2021/11/09 23:01:30;;;;;;;;;3.00;3.00;;;;;;;;5042320;27;114046;-80
2021/11/09 23:03:56;;;;;;;;;3.75;1.00;;;;;;;;5043656;27;112325;-79
2021/11/09 23:06:21;;;;;;;;;2.50;2.00;;;;;;;;5044041;27;111947;-81
2021/11/09 23:08:47;;;;;;;;;3.50;2.00;;;;;;;;5042957;27;113070;-80
2021/11/09 23:11:12;;;;;;;;;2.25;2.25;;;;;;;;5047765;27;112171;-80
2021/11/09 23:13:37;;;;;;;;;2.00;0.75;;;;;;;;5042713;27;112364;-79
2021/11/09 23:16:03;;;;;;;;;3.75;3.00;;;;;;;;5043559;27;112066;-79
2021/11/09 23:18:28;;;;;;;;;2.00;2.00;;;;;;;;5043319;27;113005;-79
2021/11/09 23:20:54;;;;;;;;;2.75;2.00;;;;;;;;5042782;27;112429;-79
2021/11/09 23:23:19;;;;;;;;;3.75;2.75;;;;;;;;5043371;27;111908;-79
2021/11/09 23:25:44;;;;;;;;;2.75;2.75;;;;;;;;5043300;27;112277;-79
2021/11/09 23:28:10;;;;;;;;;3.00;3.00;;;;;;;;5042406;27;112399;-77
2021/11/09 23:30:35;;;;;;;;;1.75;1.00;;;;;;;;5042779;27;111926;-78
2021/11/09 23:33:01;;;;;;;;;3.00;2.00;;;;;;;;5045843;27;111986;-77
2021/11/09 23:35:26;;;;;;;;;6.00;4.00;;;;;;;;5043192;27;111740;-78
2021/11/09 23:37:51;;;;;;;;;2.00;2.00;;;;;;;;5044047;27;112261;-77
2021/11/09 23:40:21;;;;;;;;;3.00;3.00;;;;;;;;5042189;27;113674;-78
2021/11/09 23:42:47;;;;;;;;;7.75;4.50;;;;;;;;5044000;27;111987;-78
2021/11/09 23:45:12;;;;;;;;;5.50;3.00;;;;;;;;5042871;27;112115;-79
2021/11/09 23:47:38;;;;;;;;;8.00;7.25;;;;;;;;5042359;27;112537;-79
2021/11/09 23:50:04;;;;;;;;;31.50;28.00;;;;;;;;5043759;27;112090;-79
2021/11/09 23:52:29;;;;;;;;;6.25;4.00;;;;;;;;5041996;27;111899;-77
2021/11/09 23:54:54;;;;;;;;;11.25;6.00;;;;;;;;5045242;27;111709;-78
2021/11/09 23:57:20;;;;;;;;;11.75;9.50;;;;;;;;5042655;27;112282;-78
2021/11/09 23:59:45;;;;;;;;;11.50;9.50;;;;;;;;5041394;27;113526;-77
